createdAt,value
2017-05-11T00:02:15.027Z,6.46
2017-05-11T00:04:44.196Z,8.02
2017-05-11T00:07:13.397Z,7.04
2017-05-11T00:09:42.560Z,7.76
2017-05-11T00:12:11.723Z,6.72
2017-05-11T00:14:40.924Z,7.22
2017-05-11T00:17:10.111Z,7.02
2017-05-11T00:19:39.276Z,6.82
2017-05-11T00:22:08.494Z,7.88
2017-05-11T00:24:37.660Z,7.60
2017-05-11T00:27:06.827Z,7.04
2017-05-11T00:29:36.767Z,7.64
2017-05-11T00:32:05.945Z,8.00
2017-05-11T00:34:35.884Z,8.50
2017-05-11T00:37:05.062Z,8.60
2017-05-11T00:39:34.989Z,8.52
2017-05-11T00:42:04.203Z,8.22
2017-05-11T00:44:33.649Z,9.56
2017-05-11T00:47:02.815Z,9.28
2017-05-11T00:49:32.007Z,8.10
2017-05-11T00:52:01.175Z,8.54
2017-05-11T00:54:31.096Z,8.06
2017-05-11T00:57:01.039Z,10.08
2017-05-11T00:59:30.203Z,9.54
2017-05-11T01:02:00.133Z,8.48
2017-05-11T01:04:29.336Z,8.58
2017-05-11T01:06:58.517Z,7.80
2017-05-11T01:09:28.440Z,8.02
2017-05-11T01:11:58.384Z,8.10
2017-05-11T01:14:27.218Z,8.36
2017-05-11T01:16:56.379Z,6.98
2017-05-11T01:19:25.592Z,7.48
2017-05-11T01:21:54.760Z,9.64
2017-05-11T01:24:23.936Z,9.82
2017-05-11T01:26:53.893Z,8.62
2017-05-11T01:29:23.059Z,7.56
2017-05-11T01:31:52.233Z,8.18
2017-05-11T01:34:21.431Z,7.72
2017-05-11T01:36:50.260Z,7.88
2017-05-11T01:39:19.432Z,11.02
2017-05-11T01:41:49.375Z,11.40
2017-05-11T01:44:18.416Z,9.52
2017-05-11T01:46:47.583Z,7.98
2017-05-11T01:49:16.784Z,9.56
2017-05-11T01:51:45.966Z,8.82
2017-05-11T01:54:15.140Z,9.06
2017-05-11T01:56:45.075Z,8.34
2017-05-11T01:59:14.243Z,8.52
2017-05-11T02:01:43.419Z,10.02
2017-05-11T02:04:12.619Z,9.00
2017-05-11T02:06:41.791Z,9.34
2017-05-11T02:09:10.960Z,9.40
2017-05-11T02:11:40.896Z,8.94
2017-05-11T02:14:10.063Z,9.88
2017-05-11T02:16:39.984Z,10.56
2017-05-11T02:19:09.195Z,10.52
2017-05-11T02:21:38.368Z,10.92
2017-05-11T02:24:08.237Z,9.46
2017-05-11T02:26:37.439Z,10.84
2017-05-11T02:29:06.616Z,9.64
2017-05-11T02:31:35.784Z,12.22
2017-05-11T02:34:06.707Z,9.52
2017-05-11T02:36:35.885Z,10.54
2017-05-11T02:39:04.382Z,10.58
2017-05-11T02:41:33.589Z,9.70
2017-05-11T02:44:02.770Z,10.20
2017-05-11T02:46:31.955Z,9.90
2017-05-11T02:49:01.155Z,10.10
2017-05-11T02:51:30.327Z,10.82
2017-05-11T02:53:59.507Z,10.16
2017-05-11T02:56:29.448Z,9.76
2017-05-11T02:58:58.623Z,9.20
2017-05-11T03:01:28.541Z,9.40
2017-05-11T03:03:58.496Z,10.80
2017-05-11T03:06:27.692Z,9.38
2017-05-11T03:08:56.871Z,10.74
2017-05-11T03:11:26.518Z,9.48
2017-05-11T03:13:55.683Z,8.48
2017-05-11T03:16:24.852Z,9.40
2017-05-11T03:18:54.798Z,8.08
2017-05-11T03:21:23.963Z,9.36
2017-05-11T03:23:53.888Z,9.42
2017-05-11T03:26:23.827Z,9.56
2017-05-11T03:28:52.991Z,9.24
2017-05-11T03:31:22.916Z,8.38
2017-05-11T03:33:52.859Z,10.12
2017-05-11T03:36:22.028Z,9.04
2017-05-11T03:38:51.957Z,9.54
2017-05-11T03:41:21.898Z,8.50
2017-05-11T03:43:51.085Z,9.38
2017-05-11T03:46:20.261Z,8.26
2017-05-11T03:48:50.199Z,9.84
2017-05-11T03:51:19.367Z,9.28
2017-05-11T03:53:49.293Z,8.48
2017-05-11T03:56:19.235Z,8.46
2017-05-11T03:58:48.421Z,9.54
2017-05-11T04:01:17.597Z,8.80
2017-05-11T04:03:47.536Z,8.80
2017-05-11T04:06:16.703Z,8.56
2017-05-11T04:08:45.883Z,8.00
2017-05-11T04:11:15.084Z,9.16
2017-05-11T04:13:44.259Z,10.28
2017-05-11T04:16:13.427Z,9.18
2017-05-11T04:18:42.641Z,7.50
2017-05-11T04:21:11.816Z,8.44
2017-05-11T04:23:41.735Z,8.68
2017-05-11T04:26:11.676Z,7.80
2017-05-11T04:28:40.843Z,7.86
2017-05-11T04:31:10.764Z,8.48
2017-05-11T04:33:40.707Z,7.40
2017-05-11T04:36:09.877Z,7.58
2017-05-11T04:38:39.825Z,7.90
2017-05-11T04:41:08.995Z,7.82
2017-05-11T04:43:38.926Z,7.38
2017-05-11T04:46:08.181Z,7.36
2017-05-11T04:48:37.363Z,7.72
2017-05-11T04:51:06.531Z,6.38
2017-05-11T04:53:35.736Z,5.74
2017-05-11T04:56:04.913Z,7.20
2017-05-11T04:58:34.093Z,7.32
2017-05-11T05:01:04.032Z,6.48
2017-05-11T05:03:33.214Z,7.26
2017-05-11T05:06:03.139Z,7.36
2017-05-11T05:08:34.051Z,6.38
2017-05-11T05:11:03.228Z,6.82
2017-05-11T05:15:56.136Z,6.54
2017-05-11T05:18:25.300Z,6.14
2017-05-11T05:20:54.460Z,6.20
2017-05-11T05:23:23.627Z,6.28
2017-05-11T05:25:52.784Z,5.84
2017-05-11T05:28:21.932Z,6.62
2017-05-11T05:30:50.353Z,6.10
2017-05-11T05:33:19.507Z,6.52
2017-05-11T05:35:48.660Z,6.10
2017-05-11T05:38:17.844Z,6.16
2017-05-11T05:40:47.021Z,5.90
2017-05-11T05:43:16.924Z,7.42
2017-05-11T05:45:46.860Z,7.06
2017-05-11T05:48:16.020Z,6.04
2017-05-11T05:50:45.176Z,6.94
2017-05-11T05:53:14.359Z,5.70
2017-05-11T05:55:43.511Z,6.60
2017-05-11T05:58:12.665Z,6.70
2017-05-11T06:00:41.847Z,6.82
2017-05-11T06:03:11.000Z,7.02
2017-05-11T06:05:40.161Z,5.80
2017-05-11T06:08:10.363Z,6.72
2017-05-11T06:10:39.538Z,7.48
2017-05-11T06:13:08.709Z,8.56
2017-05-11T06:15:37.893Z,7.22
2017-05-11T06:18:07.049Z,6.96
2017-05-11T06:20:36.959Z,6.90
2017-05-11T06:23:06.869Z,7.38
2017-05-11T06:25:36.776Z,7.70
2017-05-11T06:28:05.953Z,6.98
2017-05-11T06:30:35.144Z,7.70
2017-05-11T06:33:04.308Z,7.14
2017-05-11T06:35:33.464Z,7.42
2017-05-11T06:38:02.648Z,7.26
2017-05-11T06:40:31.805Z,7.66
2017-05-11T06:43:00.964Z,8.62
2017-05-11T06:45:30.152Z,8.60
2017-05-11T06:47:59.316Z,9.28
2017-05-11T06:50:28.479Z,9.16
2017-05-11T06:52:58.413Z,7.56
2017-05-11T06:55:27.572Z,7.54
2017-05-11T06:57:56.728Z,7.88
2017-05-11T07:00:26.456Z,8.62
2017-05-11T07:02:55.648Z,8.64
2017-05-11T07:05:24.808Z,10.28
2017-05-11T07:07:54.221Z,8.94
2017-05-11T07:10:23.756Z,9.02
2017-05-11T07:12:52.912Z,9.96
2017-05-11T07:15:22.849Z,8.92
2017-05-11T07:17:52.014Z,9.82
2017-05-11T07:20:21.940Z,9.34
2017-05-11T07:22:51.871Z,9.42
2017-05-11T07:25:21.042Z,8.98
2017-05-11T07:27:50.210Z,10.38
2017-05-11T07:30:19.404Z,8.86
2017-05-11T07:32:48.561Z,9.78
2017-05-11T07:35:17.745Z,9.32
2017-05-11T07:37:47.669Z,8.82
2017-05-11T07:40:16.844Z,9.38
2017-05-11T07:42:46.003Z,9.10
2017-05-11T07:45:15.191Z,9.16
2017-05-11T07:47:44.348Z,9.02
2017-05-11T07:50:14.264Z,10.36
2017-05-11T07:52:43.457Z,9.00
2017-05-11T07:55:12.628Z,10.02
2017-05-11T07:57:41.783Z,9.24
2017-05-11T08:00:10.986Z,9.00
2017-05-11T08:02:40.151Z,9.30
2017-05-11T08:05:10.073Z,9.40
2017-05-11T08:07:40.016Z,9.28
2017-05-11T08:10:09.181Z,10.54
2017-05-11T08:12:38.344Z,10.06
2017-05-11T08:15:07.744Z,9.62
2017-05-11T08:17:36.913Z,9.66
2017-05-11T08:20:05.888Z,10.02
2017-05-11T08:22:35.824Z,9.40
2017-05-11T08:25:04.997Z,10.54
2017-05-11T08:27:34.924Z,9.70
2017-05-11T08:30:04.120Z,10.12
2017-05-11T08:32:34.024Z,10.02
2017-05-11T08:35:03.953Z,9.96
2017-05-11T08:37:33.112Z,9.42
2017-05-11T08:40:02.279Z,10.96
2017-05-11T08:42:31.486Z,10.06
2017-05-11T08:45:00.658Z,10.06
2017-05-11T08:47:29.817Z,9.58
2017-05-11T08:49:59.014Z,10.58
2017-05-11T08:52:28.177Z,9.74
2017-05-11T08:54:57.359Z,10.18
2017-05-11T08:57:26.560Z,10.60
2017-05-11T08:59:55.726Z,9.92
2017-05-11T09:02:25.635Z,9.56
2017-05-11T09:04:55.572Z,10.26
2017-05-11T09:07:25.584Z,10.38
2017-05-11T09:09:55.522Z,9.40
2017-05-11T09:12:24.697Z,10.78
2017-05-11T09:14:54.616Z,10.56
2017-05-11T09:17:24.549Z,9.70
2017-05-11T09:19:53.712Z,9.74
2017-05-11T09:22:22.892Z,9.20
2017-05-11T09:24:52.084Z,10.10
2017-05-11T09:27:21.251Z,9.34
2017-05-11T09:29:50.411Z,9.32
2017-05-11T09:32:19.603Z,9.76
2017-05-11T09:34:49.032Z,10.18
2017-05-11T09:37:18.959Z,9.72
2017-05-11T09:39:48.130Z,10.10
2017-05-11T09:42:18.049Z,11.56
2017-05-11T09:44:47.236Z,9.46
2017-05-11T09:47:16.398Z,8.62
2017-05-11T09:49:45.600Z,10.10
2017-05-11T09:52:14.813Z,10.46
2017-05-11T09:54:43.979Z,9.46
2017-05-11T09:57:13.153Z,9.02
2017-05-11T09:59:43.081Z,8.84
2017-05-11T10:02:12.236Z,9.30
2017-05-11T10:04:41.391Z,8.90
2017-05-11T10:07:10.596Z,10.30
2017-05-11T10:09:39.641Z,9.76
2017-05-11T10:12:09.017Z,8.88
2017-05-11T10:14:38.215Z,8.76
2017-05-11T10:17:07.380Z,8.72
2017-05-11T10:19:36.536Z,8.90
2017-05-11T10:22:06.425Z,10.08
2017-05-11T10:24:35.581Z,9.62
2017-05-11T10:27:04.739Z,8.36
2017-05-11T10:29:33.927Z,9.88
2017-05-11T10:32:03.083Z,8.60
2017-05-11T10:34:32.244Z,9.64
2017-05-11T10:37:01.403Z,8.60
2017-05-11T10:39:30.571Z,8.78
2017-05-11T10:41:59.756Z,9.72
2017-05-11T10:44:29.661Z,8.08
2017-05-11T10:46:59.601Z,8.80
2017-05-11T10:49:28.776Z,8.48
2017-05-11T10:51:58.698Z,8.20
2017-05-11T10:54:28.627Z,9.30
2017-05-11T10:56:57.791Z,8.74
2017-05-11T10:59:26.944Z,7.88
2017-05-11T11:01:56.131Z,7.44
2017-05-11T11:04:25.298Z,8.18
2017-05-11T11:06:55.207Z,8.74
2017-05-11T11:09:24.388Z,7.88
2017-05-11T11:11:53.544Z,8.62
2017-05-11T11:14:22.709Z,8.90
2017-05-11T11:16:52.643Z,8.68
2017-05-11T11:19:21.809Z,9.10
2017-05-11T11:21:50.972Z,6.98
2017-05-11T11:24:20.152Z,9.42
2017-05-11T11:26:49.313Z,8.82
2017-05-11T11:29:18.469Z,8.32
2017-05-11T11:31:47.619Z,7.64
2017-05-11T11:34:17.524Z,7.02
2017-05-11T11:36:46.712Z,8.40
2017-05-11T11:39:15.871Z,8.46
2017-05-11T11:41:45.027Z,8.20
2017-05-11T11:44:15.305Z,9.12
2017-05-11T11:46:44.472Z,9.16
2017-05-11T11:49:13.660Z,7.18
2017-05-11T11:51:43.558Z,7.90
2017-05-11T11:54:12.726Z,8.38
2017-05-11T11:56:41.913Z,8.00
2017-05-11T11:59:11.072Z,7.00
2017-05-11T12:01:40.264Z,6.84
2017-05-11T12:04:10.197Z,7.30
2017-05-11T12:06:39.355Z,6.92
2017-05-11T12:09:08.528Z,6.80
2017-05-11T12:11:37.717Z,7.10
2017-05-11T12:14:06.875Z,6.62
2017-05-11T12:16:36.779Z,7.50
2017-05-11T12:19:06.716Z,6.68
2017-05-11T12:21:35.914Z,7.18
2017-05-11T12:24:05.083Z,6.92
2017-05-11T12:26:34.293Z,9.16
2017-05-11T12:29:04.204Z,7.56
2017-05-11T12:31:33.372Z,7.44
2017-05-11T12:34:02.562Z,6.10
2017-05-11T12:36:31.724Z,7.38
2017-05-11T12:39:00.888Z,7.42
2017-05-11T12:41:30.085Z,7.04
2017-05-11T12:43:59.247Z,6.56
2017-05-11T12:46:28.408Z,6.50
2017-05-11T12:48:58.341Z,7.30
2017-05-11T12:51:27.525Z,6.30
2017-05-11T12:53:57.430Z,6.70
2017-05-11T12:56:27.456Z,7.32
2017-05-11T12:58:57.361Z,6.58
2017-05-11T13:01:27.297Z,6.52
2017-05-11T13:03:56.451Z,6.40
2017-05-11T13:06:25.611Z,6.44
2017-05-11T13:08:54.764Z,5.64
2017-05-11T13:11:23.981Z,6.30
2017-05-11T13:13:54.119Z,6.04
2017-05-11T13:16:23.275Z,5.54
2017-05-11T13:18:52.436Z,6.18
2017-05-11T13:21:21.628Z,6.78
2017-05-11T13:23:50.787Z,5.96
2017-05-11T13:26:19.981Z,6.38
2017-05-11T13:28:49.910Z,6.22
2017-05-11T13:31:19.816Z,6.22
2017-05-11T13:33:49.724Z,5.60
2017-05-11T13:36:18.922Z,5.54
2017-05-11T13:38:48.091Z,6.18
2017-05-11T13:41:17.292Z,6.16
2017-05-11T13:43:46.527Z,6.36
2017-05-11T13:46:16.428Z,6.46
2017-05-11T13:48:45.606Z,6.22
2017-05-11T13:51:14.797Z,6.12
2017-05-11T13:53:43.961Z,5.90
2017-05-11T13:56:13.121Z,5.72
2017-05-11T13:58:42.311Z,5.46
2017-05-11T14:01:11.477Z,5.72
2017-05-11T14:03:40.632Z,5.32
2017-05-11T14:06:10.559Z,5.24
2017-05-11T14:08:39.733Z,6.12
2017-05-11T14:11:08.884Z,6.08
2017-05-11T14:13:38.067Z,5.80
2017-05-11T14:16:07.233Z,5.18
2017-05-11T14:18:36.392Z,5.98
2017-05-11T14:21:05.576Z,5.92
2017-05-11T14:23:34.736Z,6.96
2017-05-11T14:26:04.651Z,6.28
2017-05-11T14:28:34.575Z,5.62
2017-05-11T14:31:04.479Z,5.60
2017-05-11T14:33:34.409Z,5.10
2017-05-11T14:36:04.309Z,5.08
2017-05-11T14:38:34.240Z,6.74
2017-05-11T14:41:03.956Z,5.44
2017-05-11T14:43:33.952Z,6.50
2017-05-11T14:46:03.105Z,5.52
2017-05-11T14:48:31.921Z,5.48
2017-05-11T14:51:01.112Z,6.62
2017-05-11T14:53:30.264Z,7.68
2017-05-11T14:55:59.441Z,5.92
2017-05-11T14:58:29.401Z,6.08
2017-05-11T15:00:58.573Z,5.46
2017-05-11T15:03:27.732Z,7.00
2017-05-11T15:05:56.920Z,6.12
2017-05-11T15:08:26.071Z,6.04
2017-05-11T15:10:55.245Z,5.86
2017-05-11T15:13:25.223Z,6.74
2017-05-11T15:15:54.388Z,6.52
2017-05-11T15:18:23.564Z,6.76
2017-05-11T15:20:53.501Z,7.20
2017-05-11T15:23:22.668Z,6.08
2017-05-11T15:25:52.516Z,6.00
2017-05-11T15:28:21.704Z,6.56
2017-05-11T15:30:50.872Z,6.36
2017-05-11T15:33:20.031Z,5.70
2017-05-11T15:35:49.206Z,6.22
2017-05-11T15:38:18.367Z,5.66
2017-05-11T15:40:47.568Z,4.92
2017-05-11T15:43:16.731Z,5.92
2017-05-11T15:45:45.888Z,7.00
2017-05-11T15:48:15.812Z,7.18
2017-05-11T15:50:44.963Z,6.32
2017-05-11T15:53:14.140Z,6.46
2017-05-11T15:55:43.328Z,6.28
2017-05-11T15:58:12.483Z,6.66
2017-05-11T16:00:42.396Z,5.98
2017-05-11T16:03:11.567Z,5.92
2017-05-11T16:05:40.719Z,7.06
2017-05-11T16:08:09.907Z,6.36
2017-05-11T16:10:39.799Z,6.54
2017-05-11T16:13:08.974Z,6.54
2017-05-11T16:15:38.155Z,6.38
2017-05-11T16:18:07.311Z,6.80
2017-05-11T16:20:37.219Z,6.24
2017-05-11T16:23:07.151Z,5.98
2017-05-11T16:25:37.095Z,5.86
2017-05-11T16:28:06.264Z,5.72
2017-05-11T16:30:36.126Z,6.50
2017-05-11T16:33:05.289Z,6.24
2017-05-11T16:35:34.457Z,6.08
2017-05-11T16:38:03.641Z,6.46
2017-05-11T16:40:32.802Z,6.82
2017-05-11T16:43:01.951Z,5.92
2017-05-11T16:45:31.133Z,6.14
2017-05-11T16:48:00.306Z,7.12
2017-05-11T16:50:30.962Z,6.76
2017-05-11T16:53:00.105Z,5.50
2017-05-11T16:55:29.265Z,7.10
2017-05-11T16:57:58.455Z,6.12
2017-05-11T17:00:27.612Z,5.90
2017-05-11T17:02:56.772Z,6.38
2017-05-11T17:05:25.969Z,6.06
2017-05-11T17:07:55.129Z,6.12
2017-05-11T17:10:24.279Z,6.14
2017-05-11T17:12:54.208Z,5.66
2017-05-11T17:15:22.605Z,6.12
2017-05-11T17:17:51.776Z,7.00
2017-05-11T17:20:21.716Z,6.64
2017-05-11T17:22:50.877Z,7.02
2017-05-11T17:25:20.811Z,6.66
2017-05-11T17:27:50.737Z,5.38
2017-05-11T17:30:19.899Z,6.54
2017-05-11T17:32:49.063Z,6.00
2017-05-11T17:35:18.248Z,5.86
2017-05-11T17:37:47.412Z,5.82
2017-05-11T17:40:17.353Z,5.22
2017-05-11T17:42:46.507Z,5.02
2017-05-11T17:45:15.663Z,5.12
2017-05-11T17:47:44.853Z,5.28
2017-05-11T17:50:14.017Z,4.30
2017-05-11T17:52:43.933Z,4.98
2017-05-11T17:55:13.873Z,5.62
2017-05-11T17:57:43.335Z,5.06
2017-05-11T18:00:12.492Z,4.68
2017-05-11T18:02:41.668Z,4.72
2017-05-11T18:05:10.844Z,5.10
2017-05-11T18:07:41.036Z,5.16
2017-05-11T18:10:10.223Z,4.46
2017-05-11T18:12:39.381Z,4.60
2017-05-11T18:15:09.296Z,4.42
2017-05-11T18:17:39.220Z,4.58
2017-05-11T18:20:08.379Z,3.54
2017-05-11T18:22:37.546Z,3.12
2017-05-11T18:25:06.745Z,3.28
2017-05-11T18:27:35.895Z,3.26
2017-05-11T18:30:05.823Z,2.82
2017-05-11T18:32:34.981Z,2.30
2017-05-11T18:35:04.136Z,2.32
2017-05-11T18:37:33.344Z,2.62
2017-05-11T18:40:02.499Z,2.94
2017-05-11T18:42:32.408Z,2.82
2017-05-11T18:45:01.591Z,2.58
2017-05-11T18:47:30.748Z,2.90
2017-05-11T18:50:00.389Z,3.96
2017-05-11T18:52:29.990Z,2.90
2017-05-11T18:54:59.182Z,3.74
2017-05-11T18:57:28.339Z,3.58
2017-05-11T18:59:58.259Z,4.00
2017-05-11T19:02:27.474Z,4.32
2017-05-11T19:04:58.158Z,3.74
2017-05-11T19:07:27.447Z,5.04
2017-05-11T19:09:57.044Z,4.78
2017-05-11T19:12:26.232Z,4.58
2017-05-11T19:14:55.384Z,5.18
2017-05-11T19:17:25.301Z,5.08
2017-05-11T19:19:55.268Z,5.62
2017-05-11T19:22:24.415Z,5.08
2017-05-11T19:24:54.324Z,5.52
2017-05-11T19:27:24.263Z,4.90
2017-05-11T19:29:53.415Z,5.52
2017-05-11T19:32:22.581Z,5.06
2017-05-11T19:34:51.761Z,5.54
2017-05-11T19:37:20.917Z,5.98
2017-05-11T19:39:50.076Z,5.00
2017-05-11T19:42:19.261Z,6.06
2017-05-11T19:44:48.417Z,4.68
2017-05-11T19:47:17.572Z,5.60
2017-05-11T19:49:46.754Z,6.02
2017-05-11T19:52:15.907Z,5.92
2017-05-11T19:54:45.064Z,5.34
2017-05-11T19:57:14.255Z,6.16
2017-05-11T19:59:43.412Z,6.12
2017-05-11T20:02:12.572Z,5.66
2017-05-11T20:04:41.755Z,5.54
2017-05-11T20:07:10.912Z,5.50
2017-05-11T20:09:40.845Z,7.12
2017-05-11T20:12:10.749Z,7.18
2017-05-11T20:14:40.652Z,5.92
2017-05-11T20:17:09.824Z,6.78
2017-05-11T20:19:38.991Z,6.76
2017-05-11T20:22:08.145Z,7.32
2017-05-11T20:24:37.325Z,6.92
2017-05-11T20:27:06.475Z,7.20
2017-05-11T20:29:35.637Z,8.32
2017-05-11T20:32:04.820Z,7.72
2017-05-11T20:34:33.986Z,8.50
2017-05-11T20:37:03.139Z,7.70
2017-05-11T20:39:33.076Z,7.44
2017-05-11T20:42:02.254Z,9.48
2017-05-11T20:44:31.412Z,8.88
2017-05-11T20:47:00.599Z,8.38
2017-05-11T20:49:29.765Z,8.00
2017-05-11T20:51:59.675Z,8.36
2017-05-11T20:54:29.804Z,9.56
2017-05-11T20:56:59.700Z,9.04
2017-05-11T20:59:28.887Z,8.96
2017-05-11T21:01:58.054Z,9.30
2017-05-11T21:04:27.215Z,10.58
2017-05-11T21:06:57.170Z,10.58
2017-05-11T21:09:26.337Z,9.12
2017-05-11T21:11:55.495Z,11.66
2017-05-11T21:14:24.982Z,10.26
2017-05-11T21:16:54.156Z,10.38
2017-05-11T21:19:23.324Z,11.28
2017-05-11T21:21:53.281Z,11.50
2017-05-11T21:24:22.466Z,9.86
2017-05-11T21:26:51.624Z,10.82
2017-05-11T21:29:20.815Z,11.82
2017-05-11T21:31:49.996Z,11.34
2017-05-11T21:34:19.156Z,11.40
2017-05-11T21:36:48.344Z,10.64
2017-05-11T21:39:17.168Z,11.42
2017-05-11T21:41:46.332Z,10.14
2017-05-11T21:44:15.562Z,11.70
2017-05-11T21:46:44.719Z,11.66
2017-05-11T21:49:14.655Z,10.76
2017-05-11T21:51:43.861Z,10.54
2017-05-11T21:54:13.035Z,11.10
2017-05-11T21:56:42.957Z,11.28
2017-05-11T21:59:12.168Z,10.34
2017-05-11T22:01:41.344Z,10.44
2017-05-11T22:04:11.278Z,11.56
2017-05-11T22:06:40.473Z,11.68
2017-05-11T22:09:09.657Z,11.12
2017-05-11T22:11:39.564Z,11.90
2017-05-11T22:14:09.496Z,10.48
2017-05-11T22:16:38.671Z,11.60
2017-05-11T22:19:07.848Z,11.62
2017-05-11T22:21:37.044Z,11.62
2017-05-11T22:24:06.211Z,10.96
2017-05-11T22:26:35.363Z,10.82
2017-05-11T22:29:04.559Z,11.38
2017-05-11T22:31:33.720Z,10.12
2017-05-11T22:34:02.880Z,10.56
2017-05-11T22:36:32.820Z,10.76
2017-05-11T22:39:01.984Z,10.18
2017-05-11T22:41:31.908Z,11.64
2017-05-11T22:44:01.840Z,11.68
2017-05-11T22:46:31.019Z,10.84
2017-05-11T22:49:01.043Z,11.46
2017-05-11T22:51:30.987Z,10.30
2017-05-11T22:54:00.349Z,11.88
2017-05-11T22:56:30.262Z,10.74
2017-05-11T22:58:59.459Z,10.42
2017-05-11T23:01:28.616Z,10.22
2017-05-11T23:03:57.785Z,12.22
2017-05-11T23:06:26.981Z,10.40
2017-05-11T23:08:56.149Z,11.36
2017-05-11T23:11:25.312Z,10.30
2017-05-11T23:13:54.509Z,11.20
2017-05-11T23:16:23.676Z,10.48
2017-05-11T23:18:52.835Z,9.80
2017-05-11T23:21:23.024Z,10.74
2017-05-11T23:23:52.223Z,10.28
2017-05-11T23:26:21.386Z,11.72
2017-05-11T23:28:50.593Z,11.46
2017-05-11T23:31:19.755Z,11.26
2017-05-11T23:33:48.919Z,11.28
2017-05-11T23:36:18.114Z,10.52
2017-05-11T23:38:47.292Z,10.56
2017-05-11T23:41:16.452Z,10.54
2017-05-11T23:43:45.647Z,11.18
2017-05-11T23:46:14.821Z,10.90
2017-05-11T23:48:44.226Z,10.28
2017-05-11T23:51:13.403Z,11.38
2017-05-11T23:53:42.568Z,10.96
2017-05-11T23:56:12.479Z,10.48
2017-05-11T23:58:42.425Z,10.62
